sensor_id;sensor_type;location;lat;lon;timestamp;P1;durP1;ratioP1;P2;durP2;ratioP2
39324;SDS011;25037;49.488;9.900;2023-04-23T00:01:59;4.28;;;1.90;;
39324;SDS011;25037;49.488;9.900;2023-04-23T00:04:28;3.08;;;2.00;;
39324;SDS011;25037;49.488;9.900;2023-04-23T00:06:59;3.63;;;1.92;;
39324;SDS011;25037;49.488;9.900;2023-04-23T00:09:26;4.82;;;1.98;;
39324;SDS011;25037;49.488;9.900;2023-04-23T00:11:56;5.35;;;1.67;;
39324;SDS011;25037;49.488;9.900;2023-04-23T00:14:27;3.17;;;2.10;;
39324;SDS011;25037;49.488;9.900;2023-04-23T00:16:54;4.18;;;1.85;;
39324;SDS011;25037;49.488;9.900;2023-04-23T00:19:21;3.25;;;1.98;;
39324;SDS011;25037;49.488;9.900;2023-04-23T00:21:48;4.25;;;2.15;;
39324;SDS011;25037;49.488;9.900;2023-04-23T00:24:14;5.45;;;2.25;;
39324;SDS011;25037;49.488;9.900;2023-04-23T00:26:41;3.47;;;1.98;;
39324;SDS011;25037;49.488;9.900;2023-04-23T00:29:08;6.45;;;3.08;;
39324;SDS011;25037;49.488;9.900;2023-04-23T00:31:35;4.97;;;2.08;;
39324;SDS011;25037;49.488;9.900;2023-04-23T00:34:01;4.22;;;2.10;;
39324;SDS011;25037;49.488;9.900;2023-04-23T00:36:28;5.13;;;2.60;;
39324;SDS011;25037;49.488;9.900;2023-04-23T00:38:55;3.80;;;1.73;;
39324;SDS011;25037;49.488;9.900;2023-04-23T00:41:22;4.07;;;2.10;;
39324;SDS011;25037;49.488;9.900;2023-04-23T00:43:49;3.75;;;2.22;;
39324;SDS011;25037;49.488;9.900;2023-04-23T00:46:18;3.75;;;2.20;;
39324;SDS011;25037;49.488;9.900;2023-04-23T00:48:45;6.47;;;2.60;;
39324;SDS011;25037;49.488;9.900;2023-04-23T00:51:13;5.22;;;2.58;;
39324;SDS011;25037;49.488;9.900;2023-04-23T00:53:41;3.65;;;2.20;;
39324;SDS011;25037;49.488;9.900;2023-04-23T00:56:08;3.90;;;2.22;;
39324;SDS011;25037;49.488;9.900;2023-04-23T00:58:35;5.75;;;2.55;;
39324;SDS011;25037;49.488;9.900;2023-04-23T01:01:02;4.65;;;2.42;;
39324;SDS011;25037;49.488;9.900;2023-04-23T01:03:30;5.35;;;2.35;;
39324;SDS011;25037;49.488;9.900;2023-04-23T01:06:02;5.95;;;2.50;;
39324;SDS011;25037;49.488;9.900;2023-04-23T01:08:29;4.00;;;2.28;;
39324;SDS011;25037;49.488;9.900;2023-04-23T01:10:57;4.50;;;2.45;;
39324;SDS011;25037;49.488;9.900;2023-04-23T01:13:24;4.10;;;2.30;;
39324;SDS011;25037;49.488;9.900;2023-04-23T01:15:55;3.58;;;2.00;;
39324;SDS011;25037;49.488;9.900;2023-04-23T01:18:22;5.18;;;2.20;;
39324;SDS011;25037;49.488;9.900;2023-04-23T01:20:49;6.30;;;2.67;;
39324;SDS011;25037;49.488;9.900;2023-04-23T01:23:16;5.50;;;2.55;;
39324;SDS011;25037;49.488;9.900;2023-04-23T01:25:43;4.03;;;2.22;;
39324;SDS011;25037;49.488;9.900;2023-04-23T01:28:09;4.55;;;2.30;;
39324;SDS011;25037;49.488;9.900;2023-04-23T01:30:37;3.38;;;2.40;;
39324;SDS011;25037;49.488;9.900;2023-04-23T01:33:05;3.95;;;2.15;;
39324;SDS011;25037;49.488;9.900;2023-04-23T01:35:32;4.38;;;2.42;;
39324;SDS011;25037;49.488;9.900;2023-04-23T01:38:01;4.55;;;2.55;;
39324;SDS011;25037;49.488;9.900;2023-04-23T01:40:29;6.35;;;2.65;;
39324;SDS011;25037;49.488;9.900;2023-04-23T01:42:55;5.05;;;2.80;;
39324;SDS011;25037;49.488;9.900;2023-04-23T01:45:22;5.03;;;2.50;;
39324;SDS011;25037;49.488;9.900;2023-04-23T01:47:49;7.80;;;2.75;;
39324;SDS011;25037;49.488;9.900;2023-04-23T01:50:17;4.63;;;2.70;;
39324;SDS011;25037;49.488;9.900;2023-04-23T01:52:44;4.22;;;2.50;;
39324;SDS011;25037;49.488;9.900;2023-04-23T01:55:11;5.43;;;2.92;;
39324;SDS011;25037;49.488;9.900;2023-04-23T01:57:39;5.97;;;3.30;;
39324;SDS011;25037;49.488;9.900;2023-04-23T02:00:07;4.45;;;3.20;;
39324;SDS011;25037;49.488;9.900;2023-04-23T02:02:36;6.55;;;4.15;;
39324;SDS011;25037;49.488;9.900;2023-04-23T02:05:09;5.18;;;3.30;;
39324;SDS011;25037;49.488;9.900;2023-04-23T02:07:37;5.75;;;3.17;;
39324;SDS011;25037;49.488;9.900;2023-04-23T02:10:05;6.53;;;3.70;;
39324;SDS011;25037;49.488;9.900;2023-04-23T02:12:33;7.65;;;4.00;;
39324;SDS011;25037;49.488;9.900;2023-04-23T02:14:59;6.32;;;3.65;;
39324;SDS011;25037;49.488;9.900;2023-04-23T02:17:26;5.22;;;3.83;;
39324;SDS011;25037;49.488;9.900;2023-04-23T02:19:54;6.32;;;4.38;;
39324;SDS011;25037;49.488;9.900;2023-04-23T02:22:21;5.63;;;3.70;;
39324;SDS011;25037;49.488;9.900;2023-04-23T02:24:50;5.85;;;3.75;;
39324;SDS011;25037;49.488;9.900;2023-04-23T02:27:18;6.60;;;3.88;;
39324;SDS011;25037;49.488;9.900;2023-04-23T02:29:45;6.47;;;4.18;;
39324;SDS011;25037;49.488;9.900;2023-04-23T02:32:12;6.03;;;3.25;;
39324;SDS011;25037;49.488;9.900;2023-04-23T02:34:39;6.28;;;3.40;;
39324;SDS011;25037;49.488;9.900;2023-04-23T02:37:07;5.70;;;3.15;;
39324;SDS011;25037;49.488;9.900;2023-04-23T02:39:33;5.03;;;3.08;;
39324;SDS011;25037;49.488;9.900;2023-04-23T02:42:00;4.90;;;3.00;;
39324;SDS011;25037;49.488;9.900;2023-04-23T02:44:27;4.95;;;2.90;;
39324;SDS011;25037;49.488;9.900;2023-04-23T02:46:53;3.40;;;2.63;;
39324;SDS011;25037;49.488;9.900;2023-04-23T02:49:21;3.78;;;2.50;;
39324;SDS011;25037;49.488;9.900;2023-04-23T02:51:48;4.13;;;2.63;;
39324;SDS011;25037;49.488;9.900;2023-04-23T02:54:14;3.78;;;2.35;;
39324;SDS011;25037;49.488;9.900;2023-04-23T02:56:41;4.43;;;3.08;;
39324;SDS011;25037;49.488;9.900;2023-04-23T02:59:08;5.35;;;2.85;;
39324;SDS011;25037;49.488;9.900;2023-04-23T03:01:35;4.63;;;3.22;;
39324;SDS011;25037;49.488;9.900;2023-04-23T03:04:02;5.57;;;3.60;;
39324;SDS011;25037;49.488;9.900;2023-04-23T03:06:29;6.70;;;3.40;;
39324;SDS011;25037;49.488;9.900;2023-04-23T03:09:02;4.38;;;3.45;;
39324;SDS011;25037;49.488;9.900;2023-04-23T03:11:30;5.38;;;3.53;;
39324;SDS011;25037;49.488;9.900;2023-04-23T03:13:57;4.72;;;3.80;;
39324;SDS011;25037;49.488;9.900;2023-04-23T03:16:23;6.82;;;3.95;;
39324;SDS011;25037;49.488;9.900;2023-04-23T03:18:53;4.93;;;3.20;;
39324;SDS011;25037;49.488;9.900;2023-04-23T03:21:20;5.25;;;4.40;;
39324;SDS011;25037;49.488;9.900;2023-04-23T03:23:47;4.88;;;3.72;;
39324;SDS011;25037;49.488;9.900;2023-04-23T03:26:13;5.60;;;3.33;;
39324;SDS011;25037;49.488;9.900;2023-04-23T03:28:40;5.00;;;2.97;;
39324;SDS011;25037;49.488;9.900;2023-04-23T03:31:07;4.63;;;3.45;;
39324;SDS011;25037;49.488;9.900;2023-04-23T03:33:33;4.55;;;3.72;;
39324;SDS011;25037;49.488;9.900;2023-04-23T03:36:00;4.50;;;3.40;;
39324;SDS011;25037;49.488;9.900;2023-04-23T03:38:27;5.07;;;3.58;;
39324;SDS011;25037;49.488;9.900;2023-04-23T03:40:54;5.47;;;4.03;;
39324;SDS011;25037;49.488;9.900;2023-04-23T03:43:20;7.18;;;4.15;;
39324;SDS011;25037;49.488;9.900;2023-04-23T03:45:47;5.63;;;3.78;;
39324;SDS011;25037;49.488;9.900;2023-04-23T03:48:14;5.20;;;3.33;;
39324;SDS011;25037;49.488;9.900;2023-04-23T03:50:41;4.88;;;3.55;;
39324;SDS011;25037;49.488;9.900;2023-04-23T03:53:07;5.10;;;3.70;;
39324;SDS011;25037;49.488;9.900;2023-04-23T03:55:35;5.20;;;3.25;;
39324;SDS011;25037;49.488;9.900;2023-04-23T03:58:01;7.40;;;3.28;;
39324;SDS011;25037;49.488;9.900;2023-04-23T04:00:28;4.25;;;3.30;;
39324;SDS011;25037;49.488;9.900;2023-04-23T04:02:55;4.45;;;3.25;;
39324;SDS011;25037;49.488;9.900;2023-04-23T04:05:22;5.47;;;3.30;;
39324;SDS011;25037;49.488;9.900;2023-04-23T04:07:49;5.00;;;3.25;;
39324;SDS011;25037;49.488;9.900;2023-04-23T04:10:16;3.63;;;2.80;;
39324;SDS011;25037;49.488;9.900;2023-04-23T04:12:42;4.20;;;3.17;;
39324;SDS011;25037;49.488;9.900;2023-04-23T04:15:12;4.00;;;2.53;;
39324;SDS011;25037;49.488;9.900;2023-04-23T04:17:39;4.72;;;2.75;;
39324;SDS011;25037;49.488;9.900;2023-04-23T04:20:06;5.63;;;2.97;;
39324;SDS011;25037;49.488;9.900;2023-04-23T04:25:06;3.90;;;2.50;;
39324;SDS011;25037;49.488;9.900;2023-04-23T04:27:33;4.13;;;3.28;;
39324;SDS011;25037;49.488;9.900;2023-04-23T04:30:00;4.38;;;3.05;;
39324;SDS011;25037;49.488;9.900;2023-04-23T04:32:27;4.20;;;3.35;;
39324;SDS011;25037;49.488;9.900;2023-04-23T04:34:54;3.65;;;3.03;;
39324;SDS011;25037;49.488;9.900;2023-04-23T04:37:20;4.43;;;3.05;;
39324;SDS011;25037;49.488;9.900;2023-04-23T04:39:47;5.63;;;3.83;;
39324;SDS011;25037;49.488;9.900;2023-04-23T04:42:14;4.95;;;3.78;;
39324;SDS011;25037;49.488;9.900;2023-04-23T04:44:42;5.13;;;3.60;;
39324;SDS011;25037;49.488;9.900;2023-04-23T04:47:09;5.05;;;3.53;;
39324;SDS011;25037;49.488;9.900;2023-04-23T04:49:36;5.93;;;3.50;;
39324;SDS011;25037;49.488;9.900;2023-04-23T04:52:03;4.88;;;3.55;;
39324;SDS011;25037;49.488;9.900;2023-04-23T04:54:30;5.15;;;3.42;;
39324;SDS011;25037;49.488;9.900;2023-04-23T04:56:56;5.13;;;3.30;;
39324;SDS011;25037;49.488;9.900;2023-04-23T04:59:23;4.13;;;3.15;;
39324;SDS011;25037;49.488;9.900;2023-04-23T05:01:50;5.07;;;4.22;;
39324;SDS011;25037;49.488;9.900;2023-04-23T05:04:16;5.90;;;3.80;;
39324;SDS011;25037;49.488;9.900;2023-04-23T05:06:43;5.63;;;4.25;;
39324;SDS011;25037;49.488;9.900;2023-04-23T05:09:10;4.47;;;3.40;;
39324;SDS011;25037;49.488;9.900;2023-04-23T05:11:37;5.50;;;3.65;;
39324;SDS011;25037;49.488;9.900;2023-04-23T05:14:04;5.30;;;4.05;;
39324;SDS011;25037;49.488;9.900;2023-04-23T05:16:31;5.28;;;4.53;;
39324;SDS011;25037;49.488;9.900;2023-04-23T05:18:58;7.03;;;4.75;;
39324;SDS011;25037;49.488;9.900;2023-04-23T05:21:25;6.82;;;4.60;;
39324;SDS011;25037;49.488;9.900;2023-04-23T05:23:53;6.47;;;3.72;;
39324;SDS011;25037;49.488;9.900;2023-04-23T05:26:20;4.97;;;4.47;;
39324;SDS011;25037;49.488;9.900;2023-04-23T05:28:47;7.88;;;3.92;;
39324;SDS011;25037;49.488;9.900;2023-04-23T05:31:14;6.07;;;4.25;;
39324;SDS011;25037;49.488;9.900;2023-04-23T05:33:41;6.85;;;4.30;;
39324;SDS011;25037;49.488;9.900;2023-04-23T05:36:16;5.30;;;4.43;;
39324;SDS011;25037;49.488;9.900;2023-04-23T05:38:43;7.18;;;4.68;;
39324;SDS011;25037;49.488;9.900;2023-04-23T05:41:10;5.28;;;4.55;;
39324;SDS011;25037;49.488;9.900;2023-04-23T05:43:36;5.15;;;4.65;;
39324;SDS011;25037;49.488;9.900;2023-04-23T05:46:03;5.80;;;4.65;;
39324;SDS011;25037;49.488;9.900;2023-04-23T05:48:32;5.65;;;4.85;;
39324;SDS011;25037;49.488;9.900;2023-04-23T05:50:59;4.80;;;4.10;;
39324;SDS011;25037;49.488;9.900;2023-04-23T05:53:26;5.40;;;4.45;;
39324;SDS011;25037;49.488;9.900;2023-04-23T05:58:22;6.40;;;3.67;;
39324;SDS011;25037;49.488;9.900;2023-04-23T06:00:48;4.88;;;3.65;;
39324;SDS011;25037;49.488;9.900;2023-04-23T06:03:15;5.18;;;3.00;;
39324;SDS011;25037;49.488;9.900;2023-04-23T06:05:42;4.45;;;3.05;;
39324;SDS011;25037;49.488;9.900;2023-04-23T06:08:08;5.25;;;3.22;;
39324;SDS011;25037;49.488;9.900;2023-04-23T06:10:35;4.65;;;2.90;;
39324;SDS011;25037;49.488;9.900;2023-04-23T06:13:02;3.65;;;2.90;;
39324;SDS011;25037;49.488;9.900;2023-04-23T06:15:29;4.05;;;2.63;;
39324;SDS011;25037;49.488;9.900;2023-04-23T06:17:55;5.20;;;3.20;;
39324;SDS011;25037;49.488;9.900;2023-04-23T06:20:22;4.60;;;3.10;;
39324;SDS011;25037;49.488;9.900;2023-04-23T06:22:50;3.75;;;2.90;;
39324;SDS011;25037;49.488;9.900;2023-04-23T06:25:16;4.63;;;3.20;;
39324;SDS011;25037;49.488;9.900;2023-04-23T06:27:43;3.63;;;2.80;;
39324;SDS011;25037;49.488;9.900;2023-04-23T06:30:10;4.47;;;2.60;;
39324;SDS011;25037;49.488;9.900;2023-04-23T06:32:37;3.95;;;2.53;;
39324;SDS011;25037;49.488;9.900;2023-04-23T06:35:04;3.60;;;2.42;;
39324;SDS011;25037;49.488;9.900;2023-04-23T06:37:32;3.40;;;2.05;;
39324;SDS011;25037;49.488;9.900;2023-04-23T06:39:59;3.25;;;1.85;;
39324;SDS011;25037;49.488;9.900;2023-04-23T06:42:25;2.80;;;1.60;;
39324;SDS011;25037;49.488;9.900;2023-04-23T06:44:52;3.28;;;1.55;;
39324;SDS011;25037;49.488;9.900;2023-04-23T06:47:19;2.47;;;1.60;;
39324;SDS011;25037;49.488;9.900;2023-04-23T06:49:46;2.33;;;1.30;;
39324;SDS011;25037;49.488;9.900;2023-04-23T06:52:12;2.50;;;1.40;;
39324;SDS011;25037;49.488;9.900;2023-04-23T06:54:39;2.75;;;1.50;;
39324;SDS011;25037;49.488;9.900;2023-04-23T06:57:06;2.05;;;1.00;;
39324;SDS011;25037;49.488;9.900;2023-04-23T06:59:32;2.38;;;1.30;;
39324;SDS011;25037;49.488;9.900;2023-04-23T07:01:59;2.25;;;1.40;;
39324;SDS011;25037;49.488;9.900;2023-04-23T07:04:26;3.50;;;1.33;;
39324;SDS011;25037;49.488;9.900;2023-04-23T07:06:53;2.83;;;1.80;;
39324;SDS011;25037;49.488;9.900;2023-04-23T07:09:20;2.70;;;1.77;;
39324;SDS011;25037;49.488;9.900;2023-04-23T07:11:46;2.40;;;1.50;;
39324;SDS011;25037;49.488;9.900;2023-04-23T07:14:13;2.00;;;1.40;;
39324;SDS011;25037;49.488;9.900;2023-04-23T07:16:40;3.67;;;1.70;;
39324;SDS011;25037;49.488;9.900;2023-04-23T07:19:07;2.45;;;1.30;;
39324;SDS011;25037;49.488;9.900;2023-04-23T07:21:33;3.38;;;1.50;;
39324;SDS011;25037;49.488;9.900;2023-04-23T07:24:00;2.90;;;1.60;;
39324;SDS011;25037;49.488;9.900;2023-04-23T07:26:32;2.42;;;1.63;;
39324;SDS011;25037;49.488;9.900;2023-04-23T07:29:00;2.53;;;1.77;;
39324;SDS011;25037;49.488;9.900;2023-04-23T07:31:28;2.00;;;1.20;;
39324;SDS011;25037;49.488;9.900;2023-04-23T07:33:54;3.47;;;1.52;;
39324;SDS011;25037;49.488;9.900;2023-04-23T07:36:21;2.28;;;1.50;;
39324;SDS011;25037;49.488;9.900;2023-04-23T07:38:48;2.22;;;1.40;;
39324;SDS011;25037;49.488;9.900;2023-04-23T07:41:16;2.13;;;1.15;;
39324;SDS011;25037;49.488;9.900;2023-04-23T07:43:42;2.53;;;1.30;;
39324;SDS011;25037;49.488;9.900;2023-04-23T07:46:09;2.28;;;0.98;;
39324;SDS011;25037;49.488;9.900;2023-04-23T07:48:36;1.95;;;1.10;;
39324;SDS011;25037;49.488;9.900;2023-04-23T07:51:03;2.58;;;1.10;;
39324;SDS011;25037;49.488;9.900;2023-04-23T07:53:29;2.15;;;0.95;;
39324;SDS011;25037;49.488;9.900;2023-04-23T07:55:56;6.40;;;1.33;;
39324;SDS011;25037;49.488;9.900;2023-04-23T07:58:23;2.78;;;1.08;;
39324;SDS011;25037;49.488;9.900;2023-04-23T08:00:50;2.63;;;0.98;;
39324;SDS011;25037;49.488;9.900;2023-04-23T08:03:17;4.20;;;0.88;;
39324;SDS011;25037;49.488;9.900;2023-04-23T08:05:44;1.77;;;0.88;;
39324;SDS011;25037;49.488;9.900;2023-04-23T08:08:11;4.05;;;1.08;;
39324;SDS011;25037;49.488;9.900;2023-04-23T08:10:38;2.50;;;0.80;;
39324;SDS011;25037;49.488;9.900;2023-04-23T08:13:05;1.83;;;0.80;;
39324;SDS011;25037;49.488;9.900;2023-04-23T08:15:32;2.33;;;0.95;;
39324;SDS011;25037;49.488;9.900;2023-04-23T08:17:58;3.58;;;1.00;;
39324;SDS011;25037;49.488;9.900;2023-04-23T08:20:25;1.88;;;1.02;;
39324;SDS011;25037;49.488;9.900;2023-04-23T08:22:52;4.13;;;1.10;;
39324;SDS011;25037;49.488;9.900;2023-04-23T08:25:19;2.38;;;1.00;;
39324;SDS011;25037;49.488;9.900;2023-04-23T08:27:46;1.83;;;0.85;;
39324;SDS011;25037;49.488;9.900;2023-04-23T08:30:12;1.30;;;0.70;;
39324;SDS011;25037;49.488;9.900;2023-04-23T08:32:39;4.20;;;1.40;;
39324;SDS011;25037;49.488;9.900;2023-04-23T08:35:06;2.22;;;0.82;;
39324;SDS011;25037;49.488;9.900;2023-04-23T08:37:33;2.17;;;1.10;;
39324;SDS011;25037;49.488;9.900;2023-04-23T08:40:00;2.13;;;1.02;;
39324;SDS011;25037;49.488;9.900;2023-04-23T08:42:35;2.33;;;1.00;;
39324;SDS011;25037;49.488;9.900;2023-04-23T08:45:10;2.30;;;1.10;;
39324;SDS011;25037;49.488;9.900;2023-04-23T08:47:38;2.03;;;1.10;;
39324;SDS011;25037;49.488;9.900;2023-04-23T08:50:10;2.78;;;1.27;;
39324;SDS011;25037;49.488;9.900;2023-04-23T08:52:44;1.92;;;1.02;;
39324;SDS011;25037;49.488;9.900;2023-04-23T08:55:19;2.03;;;1.30;;
39324;SDS011;25037;49.488;9.900;2023-04-23T08:57:47;3.78;;;1.35;;
39324;SDS011;25037;49.488;9.900;2023-04-23T09:00:15;2.40;;;1.10;;
39324;SDS011;25037;49.488;9.900;2023-04-23T09:02:45;1.98;;;1.15;;
39324;SDS011;25037;49.488;9.900;2023-04-23T09:05:13;2.15;;;0.90;;
39324;SDS011;25037;49.488;9.900;2023-04-23T09:07:41;2.38;;;1.17;;
39324;SDS011;25037;49.488;9.900;2023-04-23T09:10:08;1.83;;;0.95;;
39324;SDS011;25037;49.488;9.900;2023-04-23T09:12:43;2.83;;;1.23;;
39324;SDS011;25037;49.488;9.900;2023-04-23T09:15:10;2.40;;;1.10;;
39324;SDS011;25037;49.488;9.900;2023-04-23T09:17:39;2.42;;;1.10;;
39324;SDS011;25037;49.488;9.900;2023-04-23T09:20:07;2.28;;;1.17;;
39324;SDS011;25037;49.488;9.900;2023-04-23T09:22:41;2.13;;;1.20;;
39324;SDS011;25037;49.488;9.900;2023-04-23T09:25:13;2.17;;;1.40;;
39324;SDS011;25037;49.488;9.900;2023-04-23T09:27:43;1.17;;;0.70;;
39324;SDS011;25037;49.488;9.900;2023-04-23T09:30:11;2.85;;;0.98;;
39324;SDS011;25037;49.488;9.900;2023-04-23T09:32:41;4.13;;;0.90;;
39324;SDS011;25037;49.488;9.900;2023-04-23T09:35:12;2.22;;;1.00;;
39324;SDS011;25037;49.488;9.900;2023-04-23T09:37:41;2.42;;;0.93;;
39324;SDS011;25037;49.488;9.900;2023-04-23T09:40:09;1.88;;;1.00;;
39324;SDS011;25037;49.488;9.900;2023-04-23T09:42:39;1.80;;;1.02;;
39324;SDS011;25037;49.488;9.900;2023-04-23T09:45:06;2.05;;;1.13;;
39324;SDS011;25037;49.488;9.900;2023-04-23T09:47:38;1.63;;;1.00;;
39324;SDS011;25037;49.488;9.900;2023-04-23T09:50:07;2.22;;;0.98;;
39324;SDS011;25037;49.488;9.900;2023-04-23T09:52:39;2.45;;;0.90;;
39324;SDS011;25037;49.488;9.900;2023-04-23T09:55:06;1.42;;;0.80;;
39324;SDS011;25037;49.488;9.900;2023-04-23T09:57:36;3.78;;;1.27;;
39324;SDS011;25037;49.488;9.900;2023-04-23T10:00:13;1.88;;;0.93;;
39324;SDS011;25037;49.488;9.900;2023-04-23T10:02:46;1.88;;;0.80;;
39324;SDS011;25037;49.488;9.900;2023-04-23T10:07:49;2.28;;;1.02;;
39324;SDS011;25037;49.488;9.900;2023-04-23T10:10:16;2.90;;;0.90;;
39324;SDS011;25037;49.488;9.900;2023-04-23T10:12:45;1.75;;;0.75;;
39324;SDS011;25037;49.488;9.900;2023-04-23T10:15:20;1.65;;;0.80;;
39324;SDS011;25037;49.488;9.900;2023-04-23T10:17:50;3.47;;;1.17;;
39324;SDS011;25037;49.488;9.900;2023-04-23T10:20:18;1.92;;;1.02;;
39324;SDS011;25037;49.488;9.900;2023-04-23T10:22:47;2.38;;;0.98;;
39324;SDS011;25037;49.488;9.900;2023-04-23T10:25:14;2.63;;;0.90;;
39324;SDS011;25037;49.488;9.900;2023-04-23T10:27:44;1.27;;;0.80;;
39324;SDS011;25037;49.488;9.900;2023-04-23T10:30:19;2.58;;;1.17;;
39324;SDS011;25037;49.488;9.900;2023-04-23T10:32:47;2.00;;;1.10;;
39324;SDS011;25037;49.488;9.900;2023-04-23T10:35:14;2.20;;;1.20;;
39324;SDS011;25037;49.488;9.900;2023-04-23T10:37:41;1.92;;;0.90;;
39324;SDS011;25037;49.488;9.900;2023-04-23T10:40:11;1.45;;;0.80;;
39324;SDS011;25037;49.488;9.900;2023-04-23T10:42:41;1.95;;;0.80;;
39324;SDS011;25037;49.488;9.900;2023-04-23T10:45:16;1.60;;;0.80;;
39324;SDS011;25037;49.488;9.900;2023-04-23T10:47:47;1.83;;;0.82;;
39324;SDS011;25037;49.488;9.900;2023-04-23T10:50:17;1.60;;;0.85;;
39324;SDS011;25037;49.488;9.900;2023-04-23T10:52:52;1.58;;;0.85;;
39324;SDS011;25037;49.488;9.900;2023-04-23T10:55:20;2.63;;;1.50;;
39324;SDS011;25037;49.488;9.900;2023-04-23T11:00:49;2.35;;;0.95;;
39324;SDS011;25037;49.488;9.900;2023-04-23T11:06:02;1.80;;;0.73;;
39324;SDS011;25037;49.488;9.900;2023-04-23T11:08:30;1.77;;;0.73;;
39324;SDS011;25037;49.488;9.900;2023-04-23T11:11:00;2.45;;;0.90;;
39324;SDS011;25037;49.488;9.900;2023-04-23T11:13:31;2.63;;;0.90;;
39324;SDS011;25037;49.488;9.900;2023-04-23T11:24:27;2.08;;;0.73;;
39324;SDS011;25037;49.488;9.900;2023-04-23T11:26:54;1.90;;;1.00;;
39324;SDS011;25037;49.488;9.900;2023-04-23T11:29:23;1.58;;;0.95;;
39324;SDS011;25037;49.488;9.900;2023-04-23T11:31:51;4.03;;;2.42;;
39324;SDS011;25037;49.488;9.900;2023-04-23T11:34:28;1.70;;;0.93;;
39324;SDS011;25037;49.488;9.900;2023-04-23T11:36:56;1.80;;;0.68;;
39324;SDS011;25037;49.488;9.900;2023-04-23T11:39:25;2.53;;;0.80;;
39324;SDS011;25037;49.488;9.900;2023-04-23T11:41:52;1.55;;;0.60;;
39324;SDS011;25037;49.488;9.900;2023-04-23T11:44:20;1.38;;;0.52;;
39324;SDS011;25037;49.488;9.900;2023-04-23T11:46:47;2.25;;;0.80;;
39324;SDS011;25037;49.488;9.900;2023-04-23T11:49:18;2.28;;;0.57;;
39324;SDS011;25037;49.488;9.900;2023-04-23T11:51:45;1.38;;;0.70;;
39324;SDS011;25037;49.488;9.900;2023-04-23T11:54:13;1.55;;;0.57;;
39324;SDS011;25037;49.488;9.900;2023-04-23T11:59:08;2.42;;;0.50;;
39324;SDS011;25037;49.488;9.900;2023-04-23T12:01:38;0.90;;;0.43;;
39324;SDS011;25037;49.488;9.900;2023-04-23T12:04:18;1.83;;;0.63;;
39324;SDS011;25037;49.488;9.900;2023-04-23T12:06:50;2.70;;;0.60;;
39324;SDS011;25037;49.488;9.900;2023-04-23T12:09:19;1.00;;;0.55;;
39324;SDS011;25037;49.488;9.900;2023-04-23T12:11:47;1.70;;;0.60;;
39324;SDS011;25037;49.488;9.900;2023-04-23T12:14:19;3.78;;;0.70;;
39324;SDS011;25037;49.488;9.900;2023-04-23T12:16:52;2.10;;;0.70;;
39324;SDS011;25037;49.488;9.900;2023-04-23T12:19:19;1.90;;;0.90;;
39324;SDS011;25037;49.488;9.900;2023-04-23T12:21:47;1.17;;;0.68;;
39324;SDS011;25037;49.488;9.900;2023-04-23T12:24:15;1.42;;;0.63;;
39324;SDS011;25037;49.488;9.900;2023-04-23T12:26:42;1.73;;;0.70;;
39324;SDS011;25037;49.488;9.900;2023-04-23T12:29:11;2.33;;;1.00;;
39324;SDS011;25037;49.488;9.900;2023-04-23T12:31:38;2.85;;;1.60;;
39324;SDS011;25037;49.488;9.900;2023-04-23T12:34:06;1.25;;;0.60;;
39324;SDS011;25037;49.488;9.900;2023-04-23T12:36:37;1.60;;;0.80;;
39324;SDS011;25037;49.488;9.900;2023-04-23T12:41:53;1.02;;;0.60;;
39324;SDS011;25037;49.488;9.900;2023-04-23T12:44:30;1.38;;;0.68;;
39324;SDS011;25037;49.488;9.900;2023-04-23T12:47:09;2.72;;;0.80;;
39324;SDS011;25037;49.488;9.900;2023-04-23T12:49:40;0.68;;;0.30;;
39324;SDS011;25037;49.488;9.900;2023-04-23T12:52:09;1.67;;;0.60;;
39324;SDS011;25037;49.488;9.900;2023-04-23T12:54:40;0.90;;;0.60;;
39324;SDS011;25037;49.488;9.900;2023-04-23T12:57:09;1.20;;;0.60;;
39324;SDS011;25037;49.488;9.900;2023-04-23T12:59:37;0.80;;;0.50;;
39324;SDS011;25037;49.488;9.900;2023-04-23T13:02:03;1.25;;;0.68;;
39324;SDS011;25037;49.488;9.900;2023-04-23T13:04:32;2.50;;;0.50;;
39324;SDS011;25037;49.488;9.900;2023-04-23T13:07:00;1.45;;;0.55;;
39324;SDS011;25037;49.488;9.900;2023-04-23T13:09:27;1.65;;;0.60;;
39324;SDS011;25037;49.488;9.900;2023-04-23T13:11:55;0.70;;;0.40;;
39324;SDS011;25037;49.488;9.900;2023-04-23T13:14:22;3.75;;;0.70;;
39324;SDS011;25037;49.488;9.900;2023-04-23T13:16:48;0.95;;;0.35;;
39324;SDS011;25037;49.488;9.900;2023-04-23T13:19:15;1.05;;;0.50;;
39324;SDS011;25037;49.488;9.900;2023-04-23T13:21:43;1.30;;;0.50;;
39324;SDS011;25037;49.488;9.900;2023-04-23T13:24:10;1.55;;;0.50;;
39324;SDS011;25037;49.488;9.900;2023-04-23T13:26:36;1.08;;;0.40;;
39324;SDS011;25037;49.488;9.900;2023-04-23T13:29:03;1.30;;;0.50;;
39324;SDS011;25037;49.488;9.900;2023-04-23T13:31:32;1.88;;;0.60;;
39324;SDS011;25037;49.488;9.900;2023-04-23T13:33:58;1.13;;;0.50;;
39324;SDS011;25037;49.488;9.900;2023-04-23T13:36:27;0.77;;;0.40;;
39324;SDS011;25037;49.488;9.900;2023-04-23T13:38:54;1.30;;;0.47;;
39324;SDS011;25037;49.488;9.900;2023-04-23T13:41:21;1.83;;;0.73;;
39324;SDS011;25037;49.488;9.900;2023-04-23T13:43:48;1.40;;;0.43;;
39324;SDS011;25037;49.488;9.900;2023-04-23T13:46:14;0.73;;;0.43;;
39324;SDS011;25037;49.488;9.900;2023-04-23T13:48:41;1.02;;;0.40;;
39324;SDS011;25037;49.488;9.900;2023-04-23T13:51:08;1.92;;;0.60;;
39324;SDS011;25037;49.488;9.900;2023-04-23T13:53:55;1.10;;;0.30;;
39324;SDS011;25037;49.488;9.900;2023-04-23T13:56:21;0.95;;;0.50;;
39324;SDS011;25037;49.488;9.900;2023-04-23T13:58:48;0.63;;;0.30;;
39324;SDS011;25037;49.488;9.900;2023-04-23T14:01:18;0.73;;;0.30;;
39324;SDS011;25037;49.488;9.900;2023-04-23T14:03:45;0.70;;;0.45;;
39324;SDS011;25037;49.488;9.900;2023-04-23T14:06:13;0.77;;;0.40;;
39324;SDS011;25037;49.488;9.900;2023-04-23T14:08:40;1.20;;;0.40;;
39324;SDS011;25037;49.488;9.900;2023-04-23T14:11:06;1.00;;;0.40;;
39324;SDS011;25037;49.488;9.900;2023-04-23T14:13:34;1.92;;;0.57;;
39324;SDS011;25037;49.488;9.900;2023-04-23T14:16:01;1.55;;;1.00;;
39324;SDS011;25037;49.488;9.900;2023-04-23T14:18:29;0.77;;;0.40;;
39324;SDS011;25037;49.488;9.900;2023-04-23T14:20:55;1.17;;;0.45;;
39324;SDS011;25037;49.488;9.900;2023-04-23T14:25:52;1.70;;;0.63;;
39324;SDS011;25037;49.488;9.900;2023-04-23T14:28:28;1.23;;;0.43;;
39324;SDS011;25037;49.488;9.900;2023-04-23T14:31:05;1.65;;;0.50;;
39324;SDS011;25037;49.488;9.900;2023-04-23T14:33:32;1.55;;;0.40;;
39324;SDS011;25037;49.488;9.900;2023-04-23T14:35:59;0.90;;;0.40;;
39324;SDS011;25037;49.488;9.900;2023-04-23T14:38:26;1.65;;;0.68;;
39324;SDS011;25037;49.488;9.900;2023-04-23T14:40:52;1.75;;;0.55;;
39324;SDS011;25037;49.488;9.900;2023-04-23T14:43:20;1.85;;;0.50;;
39324;SDS011;25037;49.488;9.900;2023-04-23T14:45:47;1.83;;;0.40;;
39324;SDS011;25037;49.488;9.900;2023-04-23T14:48:13;0.70;;;0.35;;
39324;SDS011;25037;49.488;9.900;2023-04-23T14:50:40;2.05;;;0.45;;
39324;SDS011;25037;49.488;9.900;2023-04-23T14:53:07;1.20;;;0.50;;
39324;SDS011;25037;49.488;9.900;2023-04-23T14:55:35;1.45;;;0.40;;
39324;SDS011;25037;49.488;9.900;2023-04-23T14:58:04;2.38;;;0.52;;
39324;SDS011;25037;49.488;9.900;2023-04-23T15:00:31;1.40;;;0.50;;
39324;SDS011;25037;49.488;9.900;2023-04-23T15:02:58;1.00;;;0.32;;
39324;SDS011;25037;49.488;9.900;2023-04-23T15:05:27;0.98;;;0.55;;
39324;SDS011;25037;49.488;9.900;2023-04-23T15:07:54;0.82;;;0.30;;
39324;SDS011;25037;49.488;9.900;2023-04-23T15:10:21;1.00;;;0.32;;
39324;SDS011;25037;49.488;9.900;2023-04-23T15:12:52;3.95;;;2.25;;
39324;SDS011;25037;49.488;9.900;2023-04-23T15:15:25;0.70;;;0.25;;
39324;SDS011;25037;49.488;9.900;2023-04-23T15:18:12;0.93;;;0.30;;
39324;SDS011;25037;49.488;9.900;2023-04-23T15:20:40;0.98;;;0.40;;
39324;SDS011;25037;49.488;9.900;2023-04-23T15:23:08;1.33;;;0.40;;